Austin, Texas
Traffic Map
Current Weather Conditions
Austin, Texas
Clear
Clear
41°
Feels Like: 41°
Wind Chill: 41° Ceiling: Unl
Heat Index: 41° Visibility: mi
Dew Point: 36° Wind: 0mph
Humidity: 82% Direction: ° ()
Pressure: 30.19in Gusts: 0mph
Raw Report DataKATT 131451Z AUTO 00000KT CLR 05/02 A3019 RMK AO2 SLP228 T00500022 53008 $
Traffic Incident Summary
Active as of:
Severity:
Category:
InformationThere was an issue retrieving the traffic information for this location. Please try a different location or try again shortly.
Advertisements